createdAt,value
2022-10-06T00:02:23.470Z,14.60
2022-10-06T00:05:08.960Z,14.60
2022-10-06T00:07:57.395Z,14.50
2022-10-06T00:10:42.455Z,14.50
2022-10-06T00:13:29.592Z,14.50
2022-10-06T00:16:21.615Z,14.40
2022-10-06T00:19:07.473Z,14.30
2022-10-06T00:21:53.298Z,14.30
2022-10-06T00:24:38.670Z,14.30
2022-10-06T00:27:24.149Z,14.30
2022-10-06T00:30:12.729Z,14.30
2022-10-06T00:33:02.967Z,14.40
2022-10-06T00:35:48.671Z,14.50
2022-10-06T00:38:35.011Z,14.40
2022-10-06T00:41:20.560Z,14.40
2022-10-06T00:44:06.085Z,14.40
2022-10-06T00:46:53.805Z,14.30
2022-10-06T00:49:39.679Z,14.40
2022-10-06T00:52:29.269Z,14.30
2022-10-06T00:55:15.099Z,14.30
2022-10-06T00:58:01.575Z,14.30
2022-10-06T01:00:50.461Z,14.30
2022-10-06T01:03:39.748Z,14.20
2022-10-06T01:06:29.306Z,14.20
2022-10-06T01:09:18.667Z,14.20
2022-10-06T01:12:07.647Z,14.20
2022-10-06T01:14:53.500Z,14.20
2022-10-06T01:17:41.735Z,14.20
2022-10-06T01:20:29.321Z,14.10
2022-10-06T01:23:14.961Z,14.10
2022-10-06T01:26:03.648Z,14.10
2022-10-06T01:28:49.496Z,14.10
2022-10-06T01:31:35.494Z,14.00
2022-10-06T01:34:20.782Z,14.00
2022-10-06T01:37:05.992Z,14.00
2022-10-06T01:39:52.211Z,13.90
2022-10-06T01:42:38.831Z,13.90
2022-10-06T01:45:24.168Z,13.80
2022-10-06T01:48:09.935Z,13.80
2022-10-06T01:50:55.428Z,13.70
2022-10-06T01:53:40.509Z,13.70
2022-10-06T01:56:26.012Z,13.60
2022-10-06T01:59:11.419Z,13.60
2022-10-06T02:01:56.746Z,13.60
2022-10-06T02:04:41.920Z,13.60
2022-10-06T02:07:27.332Z,13.60
2022-10-06T02:10:12.772Z,13.60
2022-10-06T02:12:58.099Z,13.60
2022-10-06T02:15:43.456Z,13.60
2022-10-06T02:18:29.056Z,13.70
2022-10-06T02:21:17.849Z,13.60
2022-10-06T02:24:03.314Z,13.60
2022-10-06T02:26:48.608Z,13.70
2022-10-06T02:29:34.420Z,13.70
2022-10-06T02:32:21.012Z,13.60
2022-10-06T02:35:06.959Z,13.60
2022-10-06T02:37:52.690Z,13.60
2022-10-06T02:40:39.799Z,13.50
2022-10-06T02:43:31.769Z,13.40
2022-10-06T02:46:22.513Z,13.40
2022-10-06T02:49:09.569Z,13.40
2022-10-06T02:51:54.811Z,13.40
2022-10-06T02:54:40.346Z,13.30
2022-10-06T02:57:31.168Z,13.20
2022-10-06T03:00:18.275Z,13.20
2022-10-06T03:03:06.489Z,13.20
2022-10-06T03:06:03.242Z,13.20
2022-10-06T03:08:54.820Z,13.10
2022-10-06T03:11:45.142Z,13.10
2022-10-06T03:14:35.361Z,13.10
2022-10-06T03:17:21.898Z,13.10
2022-10-06T03:20:11.883Z,13.10
2022-10-06T03:22:57.647Z,13.10
2022-10-06T03:25:42.963Z,13.10
2022-10-06T03:28:30.550Z,13.10
2022-10-06T03:31:18.021Z,13.10
2022-10-06T03:34:04.760Z,13.10
2022-10-06T03:36:50.307Z,13.10
2022-10-06T03:39:39.476Z,13.10
2022-10-06T03:42:24.931Z,13.10
2022-10-06T03:45:14.317Z,13.10
2022-10-06T03:48:00.687Z,13.10
2022-10-06T03:51:01.054Z,13.10
2022-10-06T03:53:48.627Z,13.10
2022-10-06T03:56:37.098Z,13.20
2022-10-06T03:59:23.291Z,13.10
2022-10-06T04:02:11.192Z,13.10
2022-10-06T04:04:56.558Z,13.00
2022-10-06T04:07:44.952Z,13.00
2022-10-06T04:10:30.172Z,13.00
2022-10-06T04:13:17.366Z,13.10
2022-10-06T04:16:12.786Z,13.00
2022-10-06T04:18:59.231Z,13.10
2022-10-06T04:21:46.888Z,13.10
2022-10-06T04:24:35.407Z,13.10
2022-10-06T04:27:30.345Z,13.00
2022-10-06T04:30:26.408Z,13.00
2022-10-06T04:33:12.008Z,13.00
2022-10-06T04:36:03.268Z,12.90
2022-10-06T04:38:50.327Z,12.80
2022-10-06T04:41:38.153Z,12.80
2022-10-06T04:44:24.368Z,12.70
2022-10-06T04:47:11.460Z,12.70
2022-10-06T04:49:57.633Z,12.60
2022-10-06T04:52:43.149Z,12.60
2022-10-06T04:55:29.411Z,12.50
2022-10-06T04:58:15.092Z,12.50
2022-10-06T05:01:05.651Z,12.50
2022-10-06T05:03:56.347Z,12.50
2022-10-06T05:06:42.862Z,12.50
2022-10-06T05:09:29.411Z,12.40
2022-10-06T05:12:14.927Z,12.40
2022-10-06T05:15:00.721Z,12.40
2022-10-06T05:17:46.025Z,12.40
2022-10-06T05:20:36.599Z,12.40
2022-10-06T05:23:22.404Z,12.40
2022-10-06T05:26:10.234Z,12.40
2022-10-06T05:28:55.514Z,12.40
2022-10-06T05:31:43.398Z,12.30
2022-10-06T05:34:32.808Z,12.30
2022-10-06T05:37:18.500Z,12.30
2022-10-06T05:43:03.518Z,12.30
2022-10-06T05:45:57.129Z,12.20
2022-10-06T05:48:47.544Z,12.20
2022-10-06T05:51:35.102Z,12.20
2022-10-06T05:54:24.748Z,12.10
2022-10-06T05:57:09.996Z,12.10
2022-10-06T05:59:55.346Z,12.10
2022-10-06T06:02:40.788Z,12.10
2022-10-06T06:05:27.281Z,12.10
2022-10-06T06:08:12.483Z,12.10
2022-10-06T06:11:07.520Z,12.10
2022-10-06T06:13:55.768Z,12.20
2022-10-06T06:16:43.410Z,12.20
2022-10-06T06:19:29.262Z,12.20
2022-10-06T06:22:14.791Z,12.20
2022-10-06T06:25:02.081Z,12.30
2022-10-06T06:27:48.089Z,12.20
2022-10-06T06:30:35.275Z,12.30
2022-10-06T06:33:22.579Z,12.30
2022-10-06T06:36:20.117Z,12.30
2022-10-06T06:39:08.432Z,12.40
2022-10-06T06:41:54.275Z,12.40
2022-10-06T06:45:15.008Z,12.40
2022-10-06T06:48:19.316Z,12.40
2022-10-06T06:51:09.684Z,12.50
2022-10-06T06:53:55.105Z,12.50
2022-10-06T06:56:44.588Z,12.50
2022-10-06T06:59:32.980Z,12.60
2022-10-06T07:02:18.831Z,12.60
2022-10-06T07:05:06.713Z,12.70
2022-10-06T07:07:52.605Z,12.70
2022-10-06T07:10:38.109Z,12.80
2022-10-06T07:13:25.620Z,12.80
2022-10-06T07:16:35.481Z,12.90
2022-10-06T07:19:40.364Z,13.00
2022-10-06T07:22:47.290Z,13.10
2022-10-06T07:25:36.639Z,13.10
2022-10-06T07:28:26.808Z,13.20
2022-10-06T07:31:19.121Z,13.20
2022-10-06T07:34:06.492Z,13.30
2022-10-06T07:36:53.968Z,13.40
2022-10-06T07:39:44.465Z,13.50
2022-10-06T07:42:29.536Z,13.50
2022-10-06T07:45:39.658Z,13.60
2022-10-06T07:48:33.980Z,13.70
2022-10-06T07:51:21.660Z,13.80
2022-10-06T07:54:08.842Z,13.80
2022-10-06T07:57:13.136Z,13.90
2022-10-06T08:00:02.780Z,14.00
2022-10-06T08:02:57.280Z,14.10
2022-10-06T08:05:42.726Z,14.20
2022-10-06T08:08:31.423Z,14.30
2022-10-06T08:11:21.012Z,14.30
2022-10-06T08:14:06.258Z,14.40
2022-10-06T08:16:56.605Z,14.50
2022-10-06T08:19:42.106Z,14.50
2022-10-06T08:22:30.084Z,14.70
2022-10-06T08:25:16.246Z,14.70
2022-10-06T08:28:02.078Z,14.80
2022-10-06T08:30:51.148Z,14.80
2022-10-06T08:33:40.383Z,14.90
2022-10-06T08:36:31.348Z,14.90
2022-10-06T08:39:20.240Z,15.00
2022-10-06T08:42:06.051Z,15.10
2022-10-06T08:45:06.603Z,15.10
2022-10-06T08:48:10.221Z,15.20
2022-10-06T08:51:18.719Z,15.40
2022-10-06T08:54:14.799Z,15.50
2022-10-06T08:57:20.707Z,15.60
2022-10-06T09:00:13.138Z,15.70
2022-10-06T09:03:00.327Z,15.80
2022-10-06T09:05:46.624Z,15.80
2022-10-06T09:08:53.793Z,16.00
2022-10-06T09:11:49.995Z,16.00
2022-10-06T09:14:52.720Z,16.00
2022-10-06T09:17:42.450Z,16.00
2022-10-06T09:20:57.133Z,16.20
2022-10-06T09:23:48.366Z,16.30
2022-10-06T09:26:34.486Z,16.40
2022-10-06T09:29:19.843Z,16.60
2022-10-06T09:32:06.878Z,16.60
2022-10-06T09:34:59.669Z,16.50
2022-10-06T09:38:08.171Z,16.50
2022-10-06T09:40:55.551Z,16.50
2022-10-06T09:43:51.706Z,16.50
2022-10-06T09:46:41.761Z,16.50
2022-10-06T09:49:31.439Z,16.50
2022-10-06T09:52:17.272Z,16.50
2022-10-06T09:55:18.727Z,16.50
2022-10-06T09:58:23.464Z,16.40
2022-10-06T10:01:11.717Z,16.50
2022-10-06T10:04:22.682Z,16.50
2022-10-06T10:07:43.099Z,16.60
2022-10-06T10:10:29.731Z,16.60
2022-10-06T10:13:24.462Z,16.60
2022-10-06T10:16:21.137Z,16.60
2022-10-06T10:19:10.394Z,16.60
2022-10-06T10:22:00.129Z,16.60
2022-10-06T10:25:27.067Z,16.60
2022-10-06T10:28:23.793Z,16.70
2022-10-06T10:31:27.739Z,16.80
2022-10-06T10:34:25.141Z,16.90
2022-10-06T10:37:14.766Z,17.10
2022-10-06T10:40:28.628Z,17.10
2022-10-06T10:43:34.564Z,17.10
2022-10-06T10:46:35.273Z,17.20
2022-10-06T10:49:30.242Z,17.30
2022-10-06T10:52:41.777Z,17.40
2022-10-06T10:55:40.795Z,17.50
2022-10-06T10:58:33.250Z,17.50
2022-10-06T11:01:28.353Z,17.70
2022-10-06T11:04:14.507Z,18.00
2022-10-06T11:07:33.229Z,18.30
2022-10-06T11:10:23.336Z,18.60
2022-10-06T11:13:28.520Z,19.10
2022-10-06T11:16:32.338Z,19.60
2022-10-06T11:19:18.029Z,19.90
2022-10-06T11:22:22.951Z,20.60
2022-10-06T11:25:35.250Z,21.20
2022-10-06T11:28:27.110Z,22.30
2022-10-06T11:31:34.223Z,22.80
2022-10-06T11:34:19.868Z,23.50
2022-10-06T11:37:30.309Z,24.50
2022-10-06T11:41:10.655Z,25.20
2022-10-06T11:44:32.494Z,25.90
2022-10-06T11:47:35.102Z,26.60
2022-10-06T11:50:37.773Z,27.30
2022-10-06T11:53:32.179Z,27.10
2022-10-06T11:56:17.684Z,27.00
2022-10-06T11:59:10.942Z,26.90
2022-10-06T12:02:01.274Z,26.80
2022-10-06T12:05:28.561Z,26.80
2022-10-06T12:08:16.798Z,27.50
2022-10-06T12:11:02.488Z,27.30
2022-10-06T12:15:06.439Z,27.20
2022-10-06T12:17:18.277Z,27.50
2022-10-06T12:20:35.110Z,27.60
2022-10-06T12:24:00.055Z,28.20
2022-10-06T12:27:08.041Z,28.70
2022-10-06T12:30:21.064Z,28.40
2022-10-06T12:33:17.444Z,29.60
2022-10-06T12:36:04.890Z,30.40
2022-10-06T12:39:22.496Z,30.40
2022-10-06T12:42:27.189Z,30.70
2022-10-06T12:45:16.818Z,30.80
2022-10-06T12:48:13.416Z,30.30
2022-10-06T12:51:02.963Z,30.20
2022-10-06T12:54:03.867Z,30.10
2022-10-06T12:57:15.056Z,30.00
2022-10-06T13:00:04.576Z,29.20
2022-10-06T13:02:54.140Z,29.30
2022-10-06T13:05:39.865Z,29.10
2022-10-06T13:08:33.855Z,28.90
2022-10-06T13:11:22.199Z,29.20
2022-10-06T13:14:12.859Z,29.30
2022-10-06T13:17:02.519Z,29.70
2022-10-06T13:19:48.917Z,30.30
2022-10-06T13:22:35.173Z,30.50
2022-10-06T13:25:20.280Z,31.00
2022-10-06T13:28:05.942Z,31.20
2022-10-06T13:30:53.064Z,31.10
2022-10-06T13:33:41.194Z,31.90
2022-10-06T13:36:29.468Z,31.50
2022-10-06T13:39:29.456Z,30.20
2022-10-06T13:42:18.320Z,30.00
2022-10-06T13:45:04.852Z,30.20
2022-10-06T13:48:07.515Z,31.40
2022-10-06T13:50:53.380Z,32.50
2022-10-06T13:53:39.661Z,32.60
2022-10-06T13:56:32.447Z,32.90
2022-10-06T13:59:30.109Z,32.30
2022-10-06T14:02:24.244Z,31.70
2022-10-06T14:05:34.528Z,31.50
2022-10-06T14:08:24.346Z,31.50
2022-10-06T14:11:10.791Z,31.50
2022-10-06T14:13:57.488Z,31.50
2022-10-06T14:16:51.399Z,31.70
2022-10-06T14:19:40.835Z,31.40
2022-10-06T14:22:36.685Z,31.00
2022-10-06T14:25:25.216Z,30.80
2022-10-06T14:28:10.758Z,30.60
2022-10-06T14:30:59.649Z,31.00
2022-10-06T14:33:47.230Z,31.00
2022-10-06T14:36:36.162Z,31.50
2022-10-06T14:39:21.347Z,31.80
2022-10-06T14:42:07.369Z,31.30
2022-10-06T14:44:52.388Z,31.30
2022-10-06T14:47:37.779Z,31.60
2022-10-06T14:50:23.500Z,31.90
2022-10-06T14:53:10.989Z,32.20
2022-10-06T14:56:08.884Z,32.30
2022-10-06T14:58:54.423Z,32.40
2022-10-06T15:01:40.589Z,32.60
2022-10-06T15:04:27.651Z,33.10
2022-10-06T15:07:31.387Z,33.60
2022-10-06T15:10:16.767Z,33.70
2022-10-06T15:13:02.325Z,33.90
2022-10-06T15:15:47.536Z,33.80
2022-10-06T15:18:33.436Z,33.30
2022-10-06T15:21:26.587Z,33.30
2022-10-06T15:24:14.260Z,33.00
2022-10-06T15:27:22.404Z,33.10
2022-10-06T15:30:11.274Z,32.90
2022-10-06T15:32:56.212Z,32.30
2022-10-06T15:35:45.430Z,32.10
2022-10-06T15:38:38.397Z,32.10
2022-10-06T15:41:23.980Z,31.70
2022-10-06T15:44:10.340Z,31.40
2022-10-06T15:46:56.358Z,31.00
2022-10-06T15:49:42.038Z,31.10
2022-10-06T15:52:29.462Z,30.40
2022-10-06T15:55:14.955Z,30.40
2022-10-06T15:58:00.517Z,30.20
2022-10-06T16:00:45.901Z,29.50
2022-10-06T16:03:41.385Z,29.20
2022-10-06T16:06:41.532Z,28.80
2022-10-06T16:09:30.595Z,28.70
2022-10-06T16:12:21.824Z,28.30
2022-10-06T16:15:07.316Z,27.40
2022-10-06T16:17:52.439Z,26.60
2022-10-06T16:20:39.290Z,26.20
2022-10-06T16:23:24.865Z,25.70
2022-10-06T16:26:10.207Z,25.00
2022-10-06T16:28:55.691Z,24.70
2022-10-06T16:31:41.406Z,24.30
2022-10-06T16:34:26.569Z,24.20
2022-10-06T16:37:12.008Z,23.90
2022-10-06T16:39:57.264Z,23.20
2022-10-06T16:42:44.263Z,22.50
2022-10-06T16:45:29.342Z,22.20
2022-10-06T16:48:14.605Z,21.90
2022-10-06T16:51:13.168Z,21.60
2022-10-06T16:54:03.185Z,21.10
2022-10-06T16:56:52.045Z,20.70
2022-10-06T16:59:42.113Z,20.20
2022-10-06T17:02:32.592Z,19.60
2022-10-06T17:05:18.040Z,19.10
2022-10-06T17:08:03.363Z,18.60
2022-10-06T17:10:59.883Z,18.10
2022-10-06T17:13:46.270Z,17.70
2022-10-06T17:16:35.057Z,17.30
2022-10-06T17:19:26.521Z,17.10
2022-10-06T17:22:15.792Z,16.90
2022-10-06T17:25:01.370Z,16.60
2022-10-06T17:27:46.591Z,16.40
2022-10-06T17:30:32.068Z,16.30
2022-10-06T17:33:17.324Z,16.10
2022-10-06T17:36:11.587Z,15.90
2022-10-06T17:39:01.401Z,15.80
2022-10-06T17:41:48.440Z,15.70
2022-10-06T17:44:33.785Z,15.50
2022-10-06T17:47:19.243Z,15.40
2022-10-06T17:50:04.696Z,15.30
2022-10-06T17:52:50.113Z,15.20
2022-10-06T17:55:36.587Z,15.20
2022-10-06T17:58:22.334Z,15.10
2022-10-06T18:01:17.667Z,15.00
2022-10-06T18:04:05.416Z,14.90
2022-10-06T18:06:54.864Z,14.80
2022-10-06T18:10:02.094Z,14.80
2022-10-06T18:12:47.927Z,14.70
2022-10-06T18:15:37.136Z,14.60
2022-10-06T18:18:25.136Z,14.50
2022-10-06T18:21:10.861Z,14.30
2022-10-06T18:23:57.913Z,14.20
2022-10-06T18:26:44.392Z,14.10
2022-10-06T18:29:32.691Z,14.00
2022-10-06T18:38:34.605Z,13.70
2022-10-06T18:41:20.104Z,13.70
2022-10-06T18:44:05.742Z,13.70
2022-10-06T18:47:09.663Z,13.70
2022-10-06T18:49:55.040Z,13.60
2022-10-06T18:52:40.333Z,13.50
2022-10-06T18:55:27.755Z,13.50
2022-10-06T18:58:16.109Z,13.40
2022-10-06T19:01:04.733Z,13.30
2022-10-06T19:03:50.542Z,13.20
2022-10-06T19:06:38.669Z,13.20
2022-10-06T19:09:25.375Z,13.10
2022-10-06T19:12:10.627Z,13.10
2022-10-06T19:14:57.127Z,13.00
2022-10-06T19:17:45.730Z,13.00
2022-10-06T19:20:32.133Z,13.00
2022-10-06T19:23:17.436Z,12.90
2022-10-06T19:26:07.700Z,12.90
2022-10-06T19:28:53.890Z,12.90
2022-10-06T19:31:41.714Z,13.00
2022-10-06T19:34:27.426Z,13.00
2022-10-06T19:37:14.097Z,13.00
2022-10-06T19:40:02.486Z,13.00
2022-10-06T19:42:47.863Z,13.00
2022-10-06T19:45:33.311Z,13.00
2022-10-06T19:48:20.125Z,13.00
2022-10-06T19:51:14.157Z,13.00
2022-10-06T19:54:00.433Z,13.00
2022-10-06T19:56:46.785Z,12.90
2022-10-06T19:59:32.867Z,13.00
2022-10-06T20:02:18.347Z,13.00
2022-10-06T20:05:16.839Z,13.00
2022-10-06T20:08:03.903Z,12.90
2022-10-06T20:10:49.148Z,12.80
2022-10-06T20:13:38.232Z,12.80
2022-10-06T20:16:23.807Z,12.80
2022-10-06T20:19:11.580Z,12.80
2022-10-06T20:21:56.912Z,12.80
2022-10-06T20:24:42.609Z,12.70
2022-10-06T20:27:28.140Z,12.70
2022-10-06T20:30:13.899Z,12.60
2022-10-06T20:33:00.543Z,12.60
2022-10-06T20:35:48.533Z,12.60
2022-10-06T20:38:52.551Z,12.60
2022-10-06T20:41:38.469Z,12.60
2022-10-06T20:44:25.098Z,12.50
2022-10-06T20:47:12.394Z,12.40
2022-10-06T20:49:57.713Z,12.30
2022-10-06T20:52:43.418Z,12.20
2022-10-06T20:55:28.969Z,12.20
2022-10-06T20:58:14.610Z,12.20
2022-10-06T21:01:13.770Z,12.20
2022-10-06T21:03:59.097Z,12.20
2022-10-06T21:06:44.829Z,12.20
2022-10-06T21:09:31.224Z,12.20
2022-10-06T21:12:16.366Z,12.20
2022-10-06T21:15:02.104Z,12.20
2022-10-06T21:17:48.320Z,12.10
2022-10-06T21:20:35.105Z,12.10
2022-10-06T21:23:21.041Z,12.10
2022-10-06T21:26:07.877Z,12.20
2022-10-06T21:28:54.438Z,12.10
2022-10-06T21:31:44.115Z,12.20
2022-10-06T21:34:29.615Z,12.10
2022-10-06T21:37:15.164Z,12.20
2022-10-06T21:40:02.555Z,12.10
2022-10-06T21:42:48.197Z,12.10
2022-10-06T21:45:33.970Z,12.10
2022-10-06T21:48:19.506Z,12.10
2022-10-06T21:51:04.726Z,12.00
2022-10-06T21:53:51.553Z,12.00
2022-10-06T21:56:37.081Z,11.90
2022-10-06T21:59:22.306Z,11.90
2022-10-06T22:02:07.768Z,11.80
2022-10-06T22:04:56.191Z,11.80
2022-10-06T22:07:47.591Z,11.70
2022-10-06T22:10:33.183Z,11.70
2022-10-06T22:13:18.789Z,11.70
2022-10-06T22:16:04.411Z,11.60
2022-10-06T22:18:50.615Z,11.60
2022-10-06T22:21:39.001Z,11.60
2022-10-06T22:24:24.340Z,11.50
2022-10-06T22:27:09.791Z,11.50
2022-10-06T22:29:58.238Z,11.50
2022-10-06T22:32:43.952Z,11.50
2022-10-06T22:35:29.560Z,11.50
2022-10-06T22:38:18.264Z,11.50
2022-10-06T22:41:09.070Z,11.50
2022-10-06T22:44:00.322Z,11.50
2022-10-06T22:46:48.316Z,11.50
2022-10-06T22:49:33.802Z,11.50
2022-10-06T22:52:19.270Z,11.50
2022-10-06T22:55:05.211Z,11.50
2022-10-06T22:57:50.890Z,11.50
2022-10-06T23:00:36.408Z,11.60
2022-10-06T23:03:22.360Z,11.60
2022-10-06T23:06:10.184Z,11.60
2022-10-06T23:08:55.311Z,11.70
2022-10-06T23:11:40.810Z,11.70
2022-10-06T23:14:29.012Z,11.70
2022-10-06T23:17:14.621Z,11.70
2022-10-06T23:20:00.289Z,11.70
2022-10-06T23:22:45.550Z,11.80
2022-10-06T23:25:31.422Z,11.90
2022-10-06T23:28:16.696Z,11.90
2022-10-06T23:31:05.058Z,12.00
2022-10-06T23:33:50.335Z,12.00
2022-10-06T23:36:35.989Z,12.00
2022-10-06T23:39:21.534Z,12.10
2022-10-06T23:42:11.928Z,12.10
2022-10-06T23:44:57.163Z,12.10
2022-10-06T23:47:43.102Z,12.00
2022-10-06T23:50:28.756Z,12.10
2022-10-06T23:53:14.179Z,12.10
2022-10-06T23:55:59.953Z,12.10
2022-10-06T23:58:45.422Z,12.10
